Time;durP1;ratioP1;P1;durP2;ratioP2;P2;SDS_P1;SDS_P2;PMS_P1;PMS_P2;Temp;Humidity;BMP_temperature;BMP_pressure;BME280_temperature;BME280_humidity;BME280_pressure;Samples;Min_cycle;Max_cycle;Signal;HPM_P1;HPM_P2
2022/09/16 00:00:57;;;;;;;1.30;0.20;;;13.00;85.70;;;;;;4860356;29;20056;-84
2022/09/16 00:03:24;;;;;;;1.08;0.25;;;13.00;85.70;;;;;;4874363;29;20426;-84
2022/09/16 00:05:52;;;;;;;1.70;0.20;;;13.10;85.80;;;;;;4850718;29;20146;-84
2022/09/16 00:08:21;;;;;;;2.35;0.30;;;13.10;85.60;;;;;;4882297;29;20111;-84
2022/09/16 00:10:48;;;;;;;1.13;0.38;;;13.20;85.70;;;;;;4902643;29;20068;-84
2022/09/16 00:13:16;;;;;;;2.70;0.43;;;13.20;85.60;;;;;;4874082;29;20053;-84
2022/09/16 00:15:45;;;;;;;3.28;0.40;;;13.20;85.50;;;;;;4893366;29;20051;-84
2022/09/16 00:18:13;;;;;;;1.05;0.30;;;13.30;85.60;;;;;;4878956;29;20057;-85
2022/09/16 00:20:49;;;;;;;1.88;0.30;;;13.40;85.50;;;;;;4865965;29;20124;-84
2022/09/16 00:23:17;;;;;;;3.13;0.40;;;13.40;85.60;;;;;;4867977;29;20494;-84
2022/09/16 00:25:50;;;;;;;3.72;0.50;;;13.40;85.70;;;;;;4879918;29;20066;-85
2022/09/16 00:28:18;;;;;;;1.85;0.40;;;13.40;85.80;;;;;;4872421;29;20147;-84
2022/09/16 00:30:45;;;;;;;1.42;0.30;;;13.30;85.90;;;;;;4866302;29;20044;-84
2022/09/16 00:33:12;;;;;;;2.22;0.43;;;13.30;85.90;;;;;;4861838;29;20370;-85
2022/09/16 00:35:40;;;;;;;1.88;0.30;;;13.30;86.10;;;;;;4858379;29;20470;-83
2022/09/16 00:38:07;;;;;;;1.77;0.20;;;13.20;86.10;;;;;;4896711;29;20056;-84
2022/09/16 00:40:34;;;;;;;1.60;0.40;;;13.20;86.30;;;;;;4871828;29;20048;-84
2022/09/16 00:43:05;;;;;;;5.10;0.45;;;13.20;86.60;;;;;;4885122;29;20139;-84
2022/09/16 00:45:32;;;;;;;3.22;0.30;;;13.10;86.60;;;;;;4862600;29;20107;-84
2022/09/16 00:48:05;;;;;;;4.78;0.30;;;13.10;86.60;;;;;;4898998;29;20135;-84
2022/09/16 00:50:44;;;;;;;1.73;0.22;;;13.10;86.70;;;;;;4876913;29;20135;-83
2022/09/16 00:53:16;;;;;;;0.95;0.20;;;13.10;86.70;;;;;;4880676;29;20426;-84
2022/09/16 00:55:44;;;;;;;3.63;0.40;;;13.10;86.90;;;;;;4893905;29;20078;-84
2022/09/16 00:58:18;;;;;;;2.92;0.30;;;13.10;87.20;;;;;;4880067;29;20060;-83
2022/09/16 01:00:46;;;;;;;2.28;0.40;;;13.00;87.40;;;;;;4884381;29;20504;-83
2022/09/16 01:03:13;;;;;;;1.98;0.40;;;13.00;87.60;;;;;;4867740;29;20184;-83
2022/09/16 01:05:41;;;;;;;1.80;0.10;;;12.90;87.50;;;;;;4876548;29;20095;-83
2022/09/16 01:08:08;;;;;;;1.70;0.20;;;12.90;88.20;;;;;;4883834;29;20511;-83
2022/09/16 01:10:35;;;;;;;1.17;0.20;;;12.90;87.70;;;;;;4895111;29;20052;-83
2022/09/16 01:13:06;;;;;;;3.72;0.40;;;12.90;87.60;;;;;;4862274;29;20045;-84
2022/09/16 01:15:43;;;;;;;4.05;0.20;;;12.90;87.70;;;;;;4887505;29;20115;-83
2022/09/16 01:18:16;;;;;;;1.95;0.20;;;12.90;87.80;;;;;;4895412;29;20048;-83
2022/09/16 01:20:59;;;;;;;3.20;0.30;;;12.90;87.90;;;;;;4886146;29;20545;-84
2022/09/16 01:23:32;;;;;;;1.35;0.20;;;12.90;88.00;;;;;;4872500;29;20059;-83
2022/09/16 01:26:17;;;;;;;2.10;0.40;;;13.00;88.20;;;;;;4879466;29;20160;-83
2022/09/16 01:29:32;;;;;;;2.05;0.20;;;13.00;88.20;;;;;;4893168;29;20044;-83
2022/09/16 01:32:05;;;;;;;1.83;0.57;;;13.00;88.30;;;;;;4830153;29;20144;-84
2022/09/16 01:34:32;;;;;;;1.10;0.30;;;13.00;88.60;;;;;;4888339;29;20557;-84
2022/09/16 01:37:09;;;;;;;4.32;0.32;;;12.90;88.60;;;;;;4869424;29;20048;-84
2022/09/16 01:39:39;;;;;;;1.88;0.17;;;12.90;88.50;;;;;;4880787;29;20143;-84
2022/09/16 01:42:29;;;;;;;1.88;0.30;;;13.00;88.50;;;;;;4885192;29;20087;-84
2022/09/16 01:45:21;;;;;;;1.45;0.20;;;13.00;88.70;;;;;;4897556;29;20458;-85
2022/09/16 01:48:22;;;;;;;4.63;0.50;;;13.10;88.80;;;;;;4883854;29;20052;-84
2022/09/16 01:51:19;;;;;;;3.25;0.45;;;13.10;88.60;;;;;;4864955;29;20045;-84
2022/09/16 01:54:10;;;;;;;1.38;0.28;;;13.10;89.30;;;;;;4858029;29;20045;-83
2022/09/16 01:56:58;;;;;;;3.72;0.20;;;13.10;88.60;;;;;;4877973;29;20412;-85
2022/09/16 01:59:32;;;;;;;2.70;0.30;;;13.10;88.50;;;;;;4819612;29;20053;-83
2022/09/16 02:02:16;;;;;;;4.20;0.40;;;13.10;88.80;;;;;;4859584;29;20051;-84
2022/09/16 02:04:53;;;;;;;1.63;0.20;;;13.10;88.80;;;;;;4877984;29;20133;-83
2022/09/16 02:07:28;;;;;;;1.05;0.15;;;13.10;88.90;;;;;;4895847;29;20108;-85
2022/09/16 02:10:03;;;;;;;1.83;0.17;;;13.10;88.90;;;;;;4864885;29;20104;-84
2022/09/16 02:12:36;;;;;;;2.38;0.30;;;13.10;88.90;;;;;;4893495;29;20036;-83
2022/09/16 02:15:08;;;;;;;1.65;0.30;;;13.00;88.90;;;;;;4890414;29;20422;-83
2022/09/16 02:17:40;;;;;;;2.63;0.28;;;13.00;89.00;;;;;;4883122;29;20067;-83
2022/09/16 02:20:13;;;;;;;1.88;0.32;;;13.00;89.10;;;;;;4899693;29;20446;-84
2022/09/16 02:22:45;;;;;;;2.28;0.30;;;13.10;89.10;;;;;;4899350;29;20052;-84
2022/09/16 02:25:14;;;;;;;1.60;0.30;;;13.10;89.10;;;;;;4878750;29;20056;-84
2022/09/16 02:27:44;;;;;;;2.13;0.28;;;13.10;88.90;;;;;;4879188;29;20517;-83
2022/09/16 02:30:16;;;;;;;1.08;0.30;;;13.10;88.90;;;;;;4883478;29;20267;-82
2022/09/16 02:32:59;;;;;;;1.35;0.30;;;13.10;89.00;;;;;;4883565;29;20086;-84
2022/09/16 02:35:28;;;;;;;1.85;0.40;;;13.20;89.40;;;;;;4879378;29;20104;-82
2022/09/16 02:38:03;;;;;;;1.70;0.43;;;13.10;89.30;;;;;;4884811;29;20046;-83
2022/09/16 02:40:36;;;;;;;2.55;0.40;;;13.00;89.40;;;;;;4883327;29;20051;-84
2022/09/16 02:43:03;;;;;;;2.42;0.30;;;13.00;89.60;;;;;;4884365;29;20044;-84
2022/09/16 02:46:03;;;;;;;1.63;0.30;;;12.90;89.80;;;;;;4880942;29;20083;-83
2022/09/16 02:48:39;;;;;;;2.75;0.30;;;12.80;89.90;;;;;;4879472;29;20136;-84
2022/09/16 02:51:15;;;;;;;2.70;0.50;;;12.80;90.10;;;;;;4880109;29;20045;-84
2022/09/16 02:53:49;;;;;;;2.05;0.43;;;12.70;90.10;;;;;;4856399;29;20527;-84
2022/09/16 02:56:35;;;;;;;3.30;0.32;;;12.70;90.10;;;;;;4890992;29;20405;-84
2022/09/16 02:59:05;;;;;;;1.40;0.20;;;12.70;90.10;;;;;;4888578;29;20445;-84
2022/09/16 03:01:35;;;;;;;1.10;0.30;;;12.80;90.10;;;;;;4897375;29;20079;-84
2022/09/16 03:04:03;;;;;;;4.55;0.57;;;12.80;90.00;;;;;;4888887;29;20049;-82
2022/09/16 03:06:34;;;;;;;1.00;0.30;;;12.80;89.90;;;;;;4886591;29;20489;-84
2022/09/16 03:09:05;;;;;;;0.75;0.20;;;12.90;89.80;;;;;;4888670;29;20049;-83
2022/09/16 03:11:44;;;;;;;0.85;0.30;;;12.90;89.70;;;;;;4863808;29;20049;-83
2022/09/16 03:14:50;;;;;;;2.85;0.30;;;13.00;89.80;;;;;;4894600;29;20083;-82
2022/09/16 03:17:42;;;;;;;1.45;0.20;;;13.00;89.60;;;;;;4885947;29;20108;-84
2022/09/16 03:20:28;;;;;;;2.85;0.20;;;13.00;89.50;;;;;;4882002;29;20100;-83
2022/09/16 03:23:13;;;;;;;1.08;0.25;;;12.90;89.60;;;;;;4888100;29;20103;-84
2022/09/16 03:26:08;;;;;;;0.50;0.20;;;13.00;89.50;;;;;;4901350;29;20059;-84
2022/09/16 03:28:57;;;;;;;1.55;0.22;;;13.00;89.40;;;;;;4881137;29;20060;-83
2022/09/16 03:31:30;;;;;;;4.15;0.40;;;12.90;89.50;;;;;;4873148;29;20465;-84
2022/09/16 03:34:16;;;;;;;2.55;0.63;;;13.00;89.50;;;;;;4885405;29;20050;-84
2022/09/16 03:36:51;;;;;;;2.17;0.35;;;12.90;89.60;;;;;;4891034;29;20040;-84
2022/09/16 03:39:20;;;;;;;3.78;0.30;;;12.90;89.50;;;;;;4870386;29;20049;-84
2022/09/16 03:41:48;;;;;;;0.98;0.10;;;12.90;89.50;;;;;;4895437;29;20060;-83
2022/09/16 03:44:15;;;;;;;1.65;0.10;;;12.90;89.40;;;;;;4897961;29;20143;-84
2022/09/16 03:46:45;;;;;;;1.25;0.20;;;12.90;89.40;;;;;;4850141;29;20577;-84
2022/09/16 03:49:12;;;;;;;2.00;0.35;;;13.00;89.30;;;;;;4876318;29;20044;-84
2022/09/16 03:51:39;;;;;;;2.10;0.35;;;13.00;89.30;;;;;;4860395;29;20165;-84
2022/09/16 03:54:06;;;;;;;1.45;0.30;;;13.00;89.30;;;;;;4866585;29;20049;-83
2022/09/16 03:56:33;;;;;;;1.52;0.20;;;12.80;89.60;;;;;;4876628;29;20138;-83
2022/09/16 03:59:00;;;;;;;1.13;0.30;;;12.70;90.00;;;;;;4877493;29;20139;-84
2022/09/16 04:01:27;;;;;;;3.55;0.40;;;12.70;90.40;;;;;;4865861;29;20048;-83
2022/09/16 04:03:55;;;;;;;1.73;0.30;;;12.60;90.10;;;;;;4868183;29;20048;-84
2022/09/16 04:06:22;;;;;;;2.50;0.60;;;12.50;90.20;;;;;;4866474;29;20056;-83
2022/09/16 04:08:50;;;;;;;1.42;0.20;;;12.60;90.20;;;;;;4866331;29;20497;-82
2022/09/16 04:11:20;;;;;;;1.20;0.40;;;12.50;90.20;;;;;;4863757;29;20081;-84
2022/09/16 04:13:49;;;;;;;1.08;0.20;;;12.50;90.40;;;;;;4866700;29;20127;-84
2022/09/16 04:16:21;;;;;;;4.05;0.22;;;12.60;90.50;;;;;;4884542;29;20040;-83
2022/09/16 04:18:48;;;;;;;0.17;0.10;;;12.60;90.50;;;;;;4851558;29;20418;-85
2022/09/16 04:21:15;;;;;;;2.63;0.20;;;12.50;90.50;;;;;;4883062;29;20048;-83
2022/09/16 04:23:44;;;;;;;3.53;0.35;;;12.60;90.50;;;;;;4884377;29;20500;-83
2022/09/16 04:26:11;;;;;;;1.85;0.20;;;12.60;90.50;;;;;;4860994;29;20486;-83
2022/09/16 04:28:38;;;;;;;1.55;0.30;;;12.60;90.50;;;;;;4897872;29;20068;-84
2022/09/16 04:31:09;;;;;;;2.08;0.30;;;12.60;90.50;;;;;;4895685;29;20104;-83
2022/09/16 04:33:37;;;;;;;2.13;0.28;;;12.70;90.60;;;;;;4884479;29;20139;-83
2022/09/16 04:36:11;;;;;;;1.52;0.22;;;12.60;90.50;;;;;;4884518;29;20066;-83
2022/09/16 04:38:39;;;;;;;2.83;0.22;;;12.60;90.50;;;;;;4878107;29;20052;-84
2022/09/16 04:41:10;;;;;;;2.20;0.20;;;12.60;90.60;;;;;;4873011;29;20044;-83
2022/09/16 04:43:38;;;;;;;1.40;0.17;;;12.60;90.60;;;;;;4847521;29;20498;-84
2022/09/16 04:46:06;;;;;;;1.73;0.30;;;12.60;90.60;;;;;;4888087;29;20048;-84
2022/09/16 04:48:34;;;;;;;1.30;0.20;;;12.60;90.60;;;;;;4879497;29;20132;-84
2022/09/16 04:51:07;;;;;;;0.82;0.30;;;12.60;90.50;;;;;;4884232;29;20044;-84
2022/09/16 04:53:36;;;;;;;1.42;0.20;;;12.60;90.50;;;;;;4895454;29;20434;-83
2022/09/16 04:56:14;;;;;;;1.05;0.55;;;12.60;90.50;;;;;;4876833;29;20076;-83
2022/09/16 04:58:50;;;;;;;0.77;0.20;;;12.60;90.50;;;;;;4869047;29;20053;-84
2022/09/16 05:01:21;;;;;;;1.00;0.20;;;12.60;90.70;;;;;;4880642;29;20049;-83
2022/09/16 05:03:52;;;;;;;1.02;0.25;;;12.60;90.40;;;;;;4891077;29;20630;-83
2022/09/16 05:06:22;;;;;;;0.35;0.10;;;12.60;90.40;;;;;;4877078;29;20408;-83
2022/09/16 05:08:50;;;;;;;1.08;0.10;;;12.60;90.40;;;;;;4898051;29;20051;-83
2022/09/16 05:11:22;;;;;;;2.50;0.10;;;12.60;90.40;;;;;;4870518;29;20047;-84
2022/09/16 05:13:50;;;;;;;2.58;0.40;;;12.60;90.40;;;;;;4896134;29;20096;-84
2022/09/16 05:16:19;;;;;;;0.63;0.20;;;12.50;90.40;;;;;;4871303;29;20049;-83
2022/09/16 05:18:49;;;;;;;0.52;0.20;;;12.50;90.40;;;;;;4888719;29;20044;-84
2022/09/16 05:21:19;;;;;;;0.40;0.10;;;12.40;90.40;;;;;;4875433;29;20079;-84
2022/09/16 05:23:49;;;;;;;0.63;0.20;;;12.40;90.50;;;;;;4877352;29;20049;-83
2022/09/16 05:26:19;;;;;;;2.40;0.20;;;12.40;90.50;;;;;;4878495;29;20473;-83
2022/09/16 05:28:47;;;;;;;1.90;0.40;;;12.30;90.50;;;;;;4871351;29;20127;-84
2022/09/16 05:31:23;;;;;;;2.17;0.30;;;12.30;90.60;;;;;;4864394;29;20137;-83
2022/09/16 05:33:58;;;;;;;2.08;0.20;;;12.30;90.60;;;;;;4880530;29;20104;-83
2022/09/16 05:36:27;;;;;;;2.47;0.20;;;12.30;90.60;;;;;;4868796;29;20048;-84
2022/09/16 05:38:55;;;;;;;0.43;0.10;;;12.20;90.60;;;;;;4896294;29;20052;-83
2022/09/16 05:41:42;;;;;;;0.35;0.10;;;12.20;90.60;;;;;;4894714;29;20051;-83
2022/09/16 05:44:10;;;;;;;0.93;0.22;;;12.20;90.60;;;;;;4888745;29;20040;-83
2022/09/16 05:46:39;;;;;;;0.57;0.10;;;12.20;90.60;;;;;;4849858;29;20044;-84
2022/09/16 05:49:07;;;;;;;1.05;0.20;;;12.20;90.60;;;;;;4865217;29;20051;-84
2022/09/16 05:51:36;;;;;;;2.10;0.35;;;12.10;90.60;;;;;;4879148;29;20060;-83
2022/09/16 05:54:03;;;;;;;1.83;0.30;;;12.10;90.60;;;;;;4893738;29;20059;-83
2022/09/16 05:56:30;;;;;;;2.90;0.20;;;12.20;90.60;;;;;;4884124;29;20056;-82
2022/09/16 05:58:59;;;;;;;1.40;0.17;;;12.10;90.60;;;;;;4868076;29;20131;-84
2022/09/16 06:01:31;;;;;;;3.33;0.20;;;12.10;90.50;;;;;;4899550;29;20060;-83
2022/09/16 06:04:01;;;;;;;2.45;0.32;;;12.20;90.50;;;;;;4899670;29;20143;-83
2022/09/16 06:06:36;;;;;;;1.00;0.47;;;12.20;90.50;;;;;;4873440;29;20576;-82
2022/09/16 06:09:15;;;;;;;0.77;0.15;;;12.20;90.40;;;;;;4895879;29;20048;-83
2022/09/16 06:11:51;;;;;;;1.00;0.20;;;12.30;90.30;;;;;;4882801;29;20049;-83
2022/09/16 06:14:24;;;;;;;3.72;0.32;;;12.30;90.30;;;;;;4883029;29;20541;-83
2022/09/16 06:16:51;;;;;;;1.38;0.17;;;12.40;90.20;;;;;;4878356;29;20048;-83
2022/09/16 06:19:19;;;;;;;2.10;0.43;;;12.40;90.10;;;;;;4882151;29;20079;-83
2022/09/16 06:21:46;;;;;;;1.85;0.30;;;12.50;90.00;;;;;;4890458;29;20100;-84
2022/09/16 06:24:15;;;;;;;4.00;0.68;;;12.60;90.00;;;;;;4883471;29;20466;-84
2022/09/16 06:26:43;;;;;;;2.22;0.17;;;12.60;89.80;;;;;;4868098;29;20049;-84
2022/09/16 06:29:12;;;;;;;2.95;0.25;;;12.70;89.70;;;;;;4893106;29;20405;-84
2022/09/16 06:31:42;;;;;;;3.22;0.30;;;12.70;89.60;;;;;;4880863;29;20040;-85
2022/09/16 06:34:17;;;;;;;0.32;0.20;;;12.70;89.50;;;;;;4876537;29;20088;-85
2022/09/16 06:36:45;;;;;;;3.22;0.50;;;12.80;89.40;;;;;;4876593;29;20131;-84
2022/09/16 06:39:14;;;;;;;2.67;0.10;;;12.80;89.40;;;;;;4885597;29;20076;-83
2022/09/16 06:41:41;;;;;;;2.65;0.20;;;12.90;89.20;;;;;;4888777;29;20044;-83
2022/09/16 06:44:08;;;;;;;2.75;0.20;;;13.00;89.20;;;;;;4868084;29;20051;-84
2022/09/16 06:46:35;;;;;;;4.03;0.20;;;13.00;89.00;;;;;;4868167;29;20068;-82
2022/09/16 06:49:02;;;;;;;2.38;0.30;;;13.10;88.90;;;;;;4877452;29;20072;-82
2022/09/16 06:51:33;;;;;;;0.68;0.17;;;13.10;88.70;;;;;;4868151;29;20048;-84
2022/09/16 06:54:06;;;;;;;2.65;0.38;;;13.20;88.60;;;;;;4868325;29;20498;-83
2022/09/16 06:56:38;;;;;;;0.95;0.28;;;13.30;88.50;;;;;;4890162;29;20057;-84
2022/09/16 06:59:25;;;;;;;1.35;0.35;;;13.30;88.30;;;;;;4870283;29;20186;-89
2022/09/16 07:01:53;;;;;;;2.00;0.20;;;13.30;88.30;;;;;;4874734;29;20511;-89
2022/09/16 07:04:20;;;;;;;2.60;0.52;;;13.40;88.30;;;;;;4886288;29;20052;-88
2022/09/16 07:06:49;;;;;;;1.23;0.40;;;13.40;88.20;;;;;;4891771;29;20423;-88
2022/09/16 07:09:35;;;;;;;2.58;0.30;;;13.50;88.10;;;;;;4867803;29;20159;-88
2022/09/16 07:12:04;;;;;;;1.08;0.30;;;13.60;88.00;;;;;;4850822;29;20512;-88
2022/09/16 07:14:32;;;;;;;3.10;0.75;;;13.60;87.80;;;;;;4839702;29;20051;-87
2022/09/16 07:17:01;;;;;;;1.88;0.30;;;13.70;87.80;;;;;;4857966;29;20565;-89
2022/09/16 07:19:28;;;;;;;0.75;0.30;;;13.80;87.70;;;;;;4865302;29;20057;-87
2022/09/16 07:21:55;;;;;;;2.72;0.65;;;13.90;87.50;;;;;;4849967;29;20052;-88
2022/09/16 07:24:23;;;;;;;1.55;0.35;;;14.00;87.40;;;;;;4882315;29;20049;-85
2022/09/16 07:26:50;;;;;;;0.90;0.47;;;14.10;87.10;;;;;;4847436;29;20600;-84
2022/09/16 07:29:19;;;;;;;3.08;0.50;;;14.20;86.90;;;;;;4866858;29;20092;-87
2022/09/16 07:31:49;;;;;;;2.22;0.20;;;14.20;86.70;;;;;;4875896;29;20051;-87
2022/09/16 07:34:19;;;;;;;3.35;0.32;;;14.30;86.60;;;;;;4886713;29;20127;-85
2022/09/16 07:36:48;;;;;;;3.55;0.40;;;14.30;86.30;;;;;;4865027;29;20458;-85
2022/09/16 07:39:17;;;;;;;2.00;0.30;;;14.30;86.10;;;;;;4880886;29;20135;-83
2022/09/16 07:41:47;;;;;;;1.98;0.35;;;14.20;86.00;;;;;;4900609;29;20055;-86
2022/09/16 07:44:19;;;;;;;2.17;0.50;;;14.20;86.00;;;;;;4890200;29;20055;-86
2022/09/16 07:46:47;;;;;;;2.35;0.38;;;14.10;86.20;;;;;;4883812;29;20044;-86
2022/09/16 07:49:15;;;;;;;1.20;0.40;;;14.10;86.10;;;;;;4883281;29;20104;-85
2022/09/16 07:51:44;;;;;;;2.10;0.20;;;14.20;86.00;;;;;;4882917;29;20064;-86
2022/09/16 07:54:15;;;;;;;3.20;0.40;;;14.30;85.70;;;;;;4861279;29;20049;-85
2022/09/16 07:56:43;;;;;;;3.10;0.38;;;14.40;85.20;;;;;;4866951;29;20148;-85
2022/09/16 07:59:14;;;;;;;1.58;0.20;;;14.40;85.10;;;;;;4868195;29;20080;-87
2022/09/16 08:01:45;;;;;;;3.80;0.55;;;14.40;84.80;;;;;;4875022;29;20059;-84
2022/09/16 08:04:15;;;;;;;2.03;0.30;;;14.50;84.20;;;;;;4895576;29;20048;-83
2022/09/16 08:06:42;;;;;;;1.45;0.10;;;14.50;84.00;;;;;;4894999;29;20441;-85
2022/09/16 08:09:09;;;;;;;1.23;0.20;;;14.70;83.70;;;;;;4869770;29;20063;-85
2022/09/16 08:11:56;;;;;;;1.75;0.60;;;14.80;83.20;;;;;;4872699;29;20048;-85
2022/09/16 08:14:24;;;;;;;2.63;0.40;;;14.80;82.90;;;;;;4866960;29;20052;-86
2022/09/16 08:16:51;;;;;;;1.48;0.10;;;14.80;83.00;;;;;;4891357;29;20048;-84
2022/09/16 08:19:21;;;;;;;1.98;0.30;;;14.80;82.00;;;;;;4879105;29;20049;-85
2022/09/16 08:21:48;;;;;;;2.45;0.25;;;14.80;81.70;;;;;;4884984;29;20040;-84
2022/09/16 08:24:16;;;;;;;3.30;0.68;;;14.80;81.20;;;;;;4882016;29;20413;-89
2022/09/16 08:26:43;;;;;;;3.33;0.20;;;14.80;81.10;;;;;;4866627;29;20041;-84
2022/09/16 08:29:10;;;;;;;2.40;0.40;;;14.90;80.50;;;;;;4878898;29;20036;-82
2022/09/16 08:31:38;;;;;;;3.20;0.30;;;14.90;80.00;;;;;;4884167;29;20127;-84
2022/09/16 08:34:05;;;;;;;4.22;0.45;;;14.90;80.10;;;;;;4876515;29;20060;-82
2022/09/16 08:36:33;;;;;;;1.75;0.17;;;15.00;80.20;;;;;;4865054;29;20048;-83
2022/09/16 08:39:00;;;;;;;2.25;0.32;;;15.00;80.30;;;;;;4895430;29;20040;-83
2022/09/16 08:41:45;;;;;;;1.25;0.10;;;15.00;80.30;;;;;;4904324;29;20788;-82
2022/09/16 08:44:49;;;;;;;3.67;0.47;;;15.10;80.10;;;;;;4895119;29;20048;-82
2022/09/16 08:47:42;;;;;;;1.23;0.28;;;15.20;79.50;;;;;;4892967;29;20109;-82
2022/09/16 08:50:17;;;;;;;0.75;0.10;;;15.30;79.00;;;;;;4862862;29;20220;-83
2022/09/16 08:52:45;;;;;;;2.58;0.30;;;15.30;79.10;;;;;;4870330;29;20860;-84
2022/09/16 08:55:30;;;;;;;0.98;0.10;;;15.50;79.00;;;;;;4879564;29;20053;-85
2022/09/16 08:58:04;;;;;;;3.45;0.30;;;15.70;78.30;;;;;;4884060;29;20063;-82
2022/09/16 09:00:33;;;;;;;3.05;0.68;;;15.90;77.40;;;;;;4881223;29;20096;-86
2022/09/16 09:03:41;;;;;;;4.45;0.30;;;16.10;76.80;;;;;;4879581;29;20048;-86
2022/09/16 09:06:20;;;;;;;1.60;0.20;;;16.20;76.50;;;;;;4888418;29;20048;-87
2022/09/16 09:09:21;;;;;;;2.00;0.50;;;16.10;76.00;;;;;;4887641;29;20076;-83
2022/09/16 09:12:06;;;;;;;2.25;0.20;;;16.10;76.10;;;;;;4869276;29;20147;-86
2022/09/16 09:14:46;;;;;;;3.22;0.20;;;16.00;76.50;;;;;;4893460;29;20045;-85
2022/09/16 09:17:16;;;;;;;2.72;0.25;;;15.90;74.70;;;;;;4872242;29;20096;-86
2022/09/16 09:20:11;;;;;;;2.58;0.28;;;15.70;74.80;;;;;;4880677;29;20479;-85
2022/09/16 09:22:56;;;;;;;0.25;0.00;;;15.80;74.90;;;;;;4892200;29;20053;-82
2022/09/16 09:25:28;;;;;;;1.65;0.38;;;15.90;73.30;;;;;;4876017;29;20051;-84
2022/09/16 09:28:13;;;;;;;1.95;0.13;;;15.90;72.40;;;;;;4883471;29;20052;-82
2022/09/16 09:30:49;;;;;;;0.93;0.20;;;15.90;72.20;;;;;;4877812;29;20056;-83
2022/09/16 09:33:35;;;;;;;3.72;0.25;;;15.80;71.50;;;;;;4889276;29;20040;-84
2022/09/16 09:36:27;;;;;;;1.40;0.45;;;15.80;71.80;;;;;;4896809;29;20049;-84
2022/09/16 09:39:12;;;;;;;0.70;0.20;;;15.70;71.20;;;;;;4871686;29;20140;-84
2022/09/16 09:41:45;;;;;;;0.47;0.10;;;15.80;71.70;;;;;;4896340;29;20079;-83
2022/09/16 09:44:24;;;;;;;;;;;15.80;70.60;;;;;;4876877;29;20478;-85
2022/09/16 09:46:55;;;;;;;2.58;0.20;;;15.90;68.80;;;;;;4880037;29;20424;-84
2022/09/16 09:49:45;;;;;;;0.75;0.10;;;15.90;69.90;;;;;;4867300;29;20097;-85
2022/09/16 09:52:22;;;;;;;1.10;0.10;;;16.00;69.40;;;;;;4884054;29;20060;-84
2022/09/16 09:54:52;;;;;;;3.40;0.10;;;16.10;69.30;;;;;;4874828;29;20084;-84
2022/09/16 09:57:28;;;;;;;1.20;0.10;;;16.20;68.10;;;;;;4860860;29;20090;-84
2022/09/16 10:00:09;;;;;;;1.55;0.20;;;16.30;67.50;;;;;;4844525;29;20080;-84
2022/09/16 10:02:42;;;;;;;0.93;0.10;;;16.40;67.80;;;;;;4862498;29;20056;-82
2022/09/16 10:05:24;;;;;;;0.85;0.10;;;16.60;67.50;;;;;;4866339;29;20052;-85
2022/09/16 10:07:56;;;;;;;1.15;0.15;;;16.80;66.50;;;;;;4850248;29;20143;-86
2022/09/16 10:10:25;;;;;;;;;;;16.80;66.60;;;;;;4861817;29;20049;-84
2022/09/16 10:12:53;;;;;;;1.02;0.05;;;16.80;66.70;;;;;;4859914;29;20123;-84
2022/09/16 10:15:27;;;;;;;1.80;0.30;;;16.90;67.00;;;;;;4866169;29;20072;-83
2022/09/16 10:17:57;;;;;;;1.15;0.20;;;16.90;66.50;;;;;;4847869;29;20053;-85
2022/09/16 10:20:37;;;;;;;2.35;0.20;;;16.80;66.10;;;;;;4857625;29;20049;-85
2022/09/16 10:23:13;;;;;;;1.45;0.25;;;16.70;66.00;;;;;;4877318;29;20071;-84
2022/09/16 10:25:41;;;;;;;2.47;0.10;;;16.60;66.40;;;;;;4881056;29;20550;-83
2022/09/16 10:28:24;;;;;;;1.45;0.10;;;16.60;66.80;;;;;;4851731;29;20049;-83
2022/09/16 10:30:54;;;;;;;0.65;0.20;;;16.70;66.50;;;;;;4881782;29;20470;-82
2022/09/16 10:33:26;;;;;;;1.63;0.20;;;16.70;65.20;;;;;;4854819;29;20049;-83
2022/09/16 10:36:04;;;;;;;0.85;0.10;;;16.70;65.40;;;;;;4863136;29;20499;-84
2022/09/16 10:38:41;;;;;;;1.10;0.20;;;16.80;65.10;;;;;;4862691;29;20053;-82
2022/09/16 10:41:16;;;;;;;0.55;0.10;;;16.80;64.00;;;;;;4875293;29;20049;-84
2022/09/16 10:43:58;;;;;;;1.65;0.10;;;16.90;63.90;;;;;;4876362;29;20053;-84
2022/09/16 10:46:26;;;;;;;;;;;17.00;64.00;;;;;;4879357;29;20048;-82
2022/09/16 10:48:59;;;;;;;1.48;0.10;;;17.10;63.70;;;;;;4868888;29;19923;-86
2022/09/16 10:51:28;;;;;;;1.50;0.20;;;17.30;62.60;;;;;;4865585;29;20136;-86
2022/09/16 10:54:01;;;;;;;3.00;0.40;;;17.50;62.70;;;;;;4875603;29;20041;-85
2022/09/16 10:56:36;;;;;;;2.47;0.20;;;17.50;61.80;;;;;;4880646;29;20040;-85
2022/09/16 10:59:12;;;;;;;1.83;0.10;;;17.50;62.20;;;;;;4865244;29;20049;-87
2022/09/16 11:02:11;;;;;;;3.08;0.22;;;17.50;61.80;;;;;;4872856;29;20053;-84
2022/09/16 11:04:53;;;;;;;0.52;0.10;;;17.50;60.70;;;;;;4874662;29;20044;-84
2022/09/16 11:07:32;;;;;;;2.00;0.30;;;17.60;60.50;;;;;;4865136;29;20168;-82
2022/09/16 11:10:08;;;;;;;2.78;0.30;;;17.80;60.20;;;;;;4856647;29;20104;-83
2022/09/16 11:12:43;;;;;;;1.88;0.20;;;17.70;59.20;;;;;;4872082;29;20045;-83
2022/09/16 11:15:38;;;;;;;1.73;0.20;;;17.70;60.50;;;;;;4860711;29;20041;-83
2022/09/16 11:18:11;;;;;;;2.85;0.20;;;17.70;60.40;;;;;;4858784;29;20041;-84
2022/09/16 11:20:59;;;;;;;2.08;0.20;;;17.50;60.50;;;;;;4857725;29;20101;-82
2022/09/16 11:23:50;;;;;;;2.58;0.47;;;17.20;60.80;;;;;;4860930;29;20498;-83
2022/09/16 11:26:39;;;;;;;0.88;0.30;;;16.80;61.10;;;;;;4849991;29;20095;-81
2022/09/16 11:29:44;;;;;;;1.02;0.60;;;16.50;61.80;;;;;;4854611;29;20057;-83
2022/09/16 11:32:26;;;;;;;0.98;0.10;;;16.30;62.10;;;;;;4867710;29;20037;-82
2022/09/16 11:35:18;;;;;;;2.85;0.20;;;16.30;62.00;;;;;;4878207;29;20072;-81
2022/09/16 11:38:16;;;;;;;1.43;0.10;;;16.40;62.10;;;;;;4863621;29;20152;-81
2022/09/16 11:40:50;;;;;;;2.05;0.10;;;16.50;62.00;;;;;;4870597;29;20045;-81
2022/09/16 11:43:38;;;;;;;1.13;0.20;;;16.70;61.80;;;;;;4868280;29;20052;-82
2022/09/16 11:46:22;;;;;;;1.80;0.08;;;16.80;61.40;;;;;;4856814;29;20049;-82
2022/09/16 11:49:04;;;;;;;1.65;0.10;;;16.80;61.70;;;;;;4844617;29;20503;-84
2022/09/16 11:51:56;;;;;;;1.20;0.15;;;16.90;60.90;;;;;;4876399;29;20076;-82
2022/09/16 11:54:59;;;;;;;1.25;0.20;;;17.00;61.00;;;;;;4857800;29;20124;-83
2022/09/16 11:57:37;;;;;;;1.23;0.10;;;17.10;60.40;;;;;;4864771;29;20492;-83
2022/09/16 12:00:11;;;;;;;0.88;0.10;;;17.20;60.40;;;;;;4874166;29;20045;-82
2022/09/16 12:02:59;;;;;;;4.18;0.57;;;17.10;59.40;;;;;;4894564;29;20725;-83
2022/09/16 12:05:34;;;;;;;1.42;0.10;;;17.00;59.60;;;;;;4881322;29;20063;-85
2022/09/16 12:08:10;;;;;;;3.55;0.45;;;17.00;60.10;;;;;;4888389;29;20048;-84
2022/09/16 12:10:51;;;;;;;2.05;0.10;;;17.00;59.50;;;;;;4877244;29;20131;-85
2022/09/16 12:13:43;;;;;;;1.98;0.10;;;17.00;59.40;;;;;;4890391;29;20055;-83
2022/09/16 12:16:17;;;;;;;1.42;0.20;;;17.10;58.90;;;;;;4881917;29;20056;-83
2022/09/16 12:18:51;;;;;;;1.55;0.10;;;17.10;58.50;;;;;;4873596;29;20100;-83
2022/09/16 12:21:54;;;;;;;2.05;0.28;;;17.10;58.50;;;;;;4894397;29;20092;-83
2022/09/16 12:24:38;;;;;;;2.65;0.13;;;17.20;57.20;;;;;;4857564;29;20056;-82
2022/09/16 12:27:28;;;;;;;2.47;0.30;;;17.30;57.60;;;;;;4889707;29;20104;-82
2022/09/16 12:30:11;;;;;;;2.53;0.20;;;17.50;57.30;;;;;;4850875;29;20900;-82
2022/09/16 12:32:51;;;;;;;3.20;0.30;;;17.60;56.80;;;;;;4902061;29;20056;-84
2022/09/16 12:35:27;;;;;;;2.85;0.25;;;17.70;56.60;;;;;;4887523;29;20462;-83
2022/09/16 12:37:56;;;;;;;3.58;0.45;;;17.80;56.70;;;;;;4888461;29;20040;-84
2022/09/16 12:40:27;;;;;;;2.38;0.20;;;18.00;55.80;;;;;;4870291;29;20043;-85
2022/09/16 12:43:04;;;;;;;3.70;0.20;;;18.10;55.70;;;;;;4884183;29;20083;-87
2022/09/16 12:46:06;;;;;;;1.08;0.20;;;18.10;55.80;;;;;;4883371;29;20053;-85
2022/09/16 12:48:39;;;;;;;3.83;0.30;;;18.10;56.10;;;;;;4872264;29;20057;-85
2022/09/16 12:51:19;;;;;;;5.40;0.32;;;18.00;57.00;;;;;;4873131;29;20135;-86
2022/09/16 12:53:56;;;;;;;4.97;0.55;;;17.90;57.60;;;;;;4872423;29;20104;-84
2022/09/16 12:56:32;;;;;;;3.65;0.50;;;17.70;58.30;;;;;;4906504;29;20135;-85
2022/09/16 12:59:15;;;;;;;1.48;0.30;;;17.60;58.90;;;;;;4893962;29;20048;-84
2022/09/16 13:01:51;;;;;;;4.07;0.40;;;17.40;59.60;;;;;;4865926;29;20128;-87
2022/09/16 13:04:33;;;;;;;2.40;0.40;;;17.30;60.10;;;;;;4892100;29;20048;-84
2022/09/16 13:07:06;;;;;;;1.50;0.20;;;17.30;60.00;;;;;;4865913;29;20417;-84
2022/09/16 13:09:39;;;;;;;3.33;0.77;;;17.30;60.50;;;;;;4881043;29;20095;-81
2022/09/16 13:12:28;;;;;;;2.47;0.50;;;17.30;60.30;;;;;;4892956;29;20044;-84
2022/09/16 13:15:24;;;;;;;3.50;0.30;;;17.40;59.80;;;;;;4863755;29;20446;-85
2022/09/16 13:17:52;;;;;;;3.25;0.30;;;17.50;59.40;;;;;;4878049;29;20053;-84
2022/09/16 13:20:32;;;;;;;4.07;0.50;;;17.40;59.30;;;;;;4867711;29;20045;-85
2022/09/16 13:23:15;;;;;;;3.08;0.40;;;17.50;59.40;;;;;;4897465;29;20481;-85
2022/09/16 13:26:00;;;;;;;;;;;17.70;59.10;;;;;;4872576;29;20152;-85
2022/09/16 13:28:43;;;;;;;3.45;0.30;;;17.70;58.70;;;;;;4866138;29;19930;-85